Time;durP1;ratioP1;P1;durP2;ratioP2;P2;SDS_P1;SDS_P2;PMS_P1;PMS_P2;Temp;Humidity;BMP_temperature;BMP_pressure;BME280_temperature;BME280_humidity;BME280_pressure;Samples;Min_cycle;Max_cycle;Signal;HPM_P1;HPM_P2
2021/05/26 00:01:05;;;;;;;1999.90;999.90;;;;;;;9.67;84.60;98480.63;5030503;28;20057;-66
2021/05/26 00:03:34;;;;;;;1999.90;999.90;;;;;;;9.61;84.09;98481.91;5030120;28;20099;-66
2021/05/26 00:06:00;;;;;;;1999.90;999.90;;;;;;;9.55;84.70;98485.94;5031320;28;20064;-66
2021/05/26 00:08:34;;;;;;;1999.90;999.90;;;;;;;9.39;85.59;98487.44;5029339;28;20045;-66
2021/05/26 00:11:04;;;;;;;1999.90;999.90;;;;;;;9.22;85.40;98486.19;5030893;28;20045;-66
2021/05/26 00:13:31;;;;;;;1999.90;999.90;;;;;;;9.36;84.95;98491.66;5031711;28;20352;-66
2021/05/26 00:15:57;;;;;;;1999.90;999.90;;;;;;;9.57;84.61;98496.66;5029144;28;20387;-66
2021/05/26 00:18:24;;;;;;;1999.90;999.90;;;;;;;9.98;82.41;98499.16;5030586;28;20056;-66
2021/05/26 00:20:53;;;;;;;1999.90;999.90;;;;;;;9.86;82.48;98490.66;5030992;28;20053;-66
2021/05/26 00:23:21;;;;;;;1999.90;999.90;;;;;;;9.73;82.27;98486.84;5029738;28;20049;-66
2021/05/26 00:25:48;;;;;;;1999.90;999.90;;;;;;;9.40;83.88;98487.13;5030434;28;20084;-66
2021/05/26 00:28:16;;;;;;;1999.90;999.90;;;;;;;9.33;83.39;98475.72;5031386;28;20057;-65
2021/05/26 00:30:46;;;;;;;1999.90;999.90;;;;;;;9.44;83.95;98477.09;5029711;28;20049;-66
2021/05/26 00:33:13;;;;;;;1999.90;999.90;;;;;;;9.16;84.53;98482.75;5028860;28;20046;-66
2021/05/26 00:35:40;;;;;;;1999.90;999.90;;;;;;;9.17;84.77;98483.59;5030515;28;20049;-66
2021/05/26 00:38:07;;;;;;;1999.90;999.90;;;;;;;9.40;83.73;98487.13;5029972;28;20107;-66
2021/05/26 00:40:34;;;;;;;1999.90;999.90;;;;;;;9.35;83.33;98495.56;5030438;28;20049;-66
2021/05/26 00:43:00;;;;;;;1999.90;999.90;;;;;;;9.23;83.91;98495.28;5030419;28;20087;-66
2021/05/26 00:45:27;;;;;;;1999.90;999.90;;;;;;;9.27;83.78;98490.78;5027841;28;20103;-66
2021/05/26 00:47:54;;;;;;;1999.90;999.90;;;;;;;9.51;83.25;98488.50;5027368;28;20508;-66
2021/05/26 00:50:24;;;;;;;1999.90;999.90;;;;;;;9.62;82.22;98485.50;5030568;28;20045;-66
2021/05/26 00:52:59;;;;;;;1999.90;999.90;;;;;;;9.69;81.90;98483.91;5026476;28;20052;-64
2021/05/26 00:55:27;;;;;;;1999.90;999.90;;;;;;;9.49;82.53;98490.75;5014901;28;20099;-66
2021/05/26 00:57:53;;;;;;;1999.90;999.90;;;;;;;9.19;83.41;98489.59;5030033;28;20246;-66
2021/05/26 01:00:24;;;;;;;1999.90;999.90;;;;;;;9.44;82.76;98488.13;5029063;28;20104;-66
2021/05/26 01:02:51;;;;;;;1999.90;999.90;;;;;;;9.97;81.13;98485.66;5030367;28;20052;-66
2021/05/26 01:05:20;;;;;;;1999.90;999.90;;;;;;;9.80;80.69;98475.34;5030153;28;20292;-66
2021/05/26 01:07:47;;;;;;;1999.90;999.90;;;;;;;10.14;79.36;98479.41;5029130;28;20576;-66
2021/05/26 01:10:17;;;;;;;1999.90;999.90;;;;;;;10.26;78.83;98476.00;5030488;28;20095;-66
2021/05/26 01:12:44;;;;;;;1999.90;999.90;;;;;;;10.27;78.85;98470.19;5029818;28;20215;-66
2021/05/26 01:15:13;;;;;;;1999.90;999.90;;;;;;;10.10;79.31;98465.41;5029656;28;20123;-66
2021/05/26 01:17:40;;;;;;;1999.90;999.90;;;;;;;10.12;79.07;98457.59;5029438;28;20053;-64
2021/05/26 01:20:18;;;;;;;1999.90;999.90;;;;;;;9.90;79.69;98461.28;5029175;28;20115;-66
2021/05/26 01:22:45;;;;;;;1999.90;999.90;;;;;;;10.44;78.22;98461.13;5029480;28;20430;-65
2021/05/26 01:25:12;;;;;;;1999.90;999.90;;;;;;;10.32;78.52;98460.91;5029269;28;20500;-65
2021/05/26 01:27:39;;;;;;;1999.90;999.90;;;;;;;10.27;78.40;98458.28;5029423;28;20500;-65
2021/05/26 01:30:07;;;;;;;1999.90;999.90;;;;;;;10.53;77.47;98453.66;5029406;28;20381;-65
2021/05/26 01:32:45;;;;;;;1999.90;999.90;;;;;;;10.00;79.32;98457.38;5029598;28;20045;-65
2021/05/26 01:35:14;;;;;;;1999.90;999.90;;;;;;;9.84;79.60;98457.00;5029555;28;20053;-65
2021/05/26 01:37:42;;;;;;;1999.90;999.90;;;;;;;9.74;80.53;98457.28;5028148;28;20382;-65
2021/05/26 01:40:10;;;;;;;1999.90;999.90;;;;;;;9.60;81.00;98452.69;5029264;28;20107;-65
2021/05/26 01:42:37;;;;;;;1999.90;999.90;;;;;;;9.42;81.76;98456.47;5028932;28;20058;-65
2021/05/26 01:45:10;;;;;;;1999.90;999.90;;;;;;;9.42;82.25;98453.69;5028754;28;20045;-65
2021/05/26 01:47:36;;;;;;;;;;;;;;;9.35;82.45;98462.44;5030283;28;20464;-65
2021/05/26 01:50:19;;;;;;;1999.90;999.90;;;;;;;9.59;81.24;98456.56;5028706;28;20318;-65
2021/05/26 01:52:47;;;;;;;1999.90;999.90;;;;;;;9.85;79.99;98453.94;5029049;28;20060;-65
2021/05/26 01:55:18;;;;;;;1999.90;999.90;;;;;;;9.57;80.42;98463.53;5028879;28;20173;-65
2021/05/26 01:57:45;;;;;;;1999.90;999.90;;;;;;;9.48;81.19;98469.81;5030650;28;20053;-65
2021/05/26 02:00:14;;;;;;;1999.90;999.90;;;;;;;9.43;81.94;98478.22;5031254;28;20045;-65
2021/05/26 02:02:41;;;;;;;1999.90;999.90;;;;;;;9.89;79.83;98467.13;5033467;28;20038;-65
2021/05/26 02:05:09;;;;;;;1999.90;999.90;;;;;;;9.76;80.12;98475.16;5032461;28;20049;-65
2021/05/26 02:07:37;;;;;;;1999.90;999.90;;;;;;;9.17;81.77;98467.03;5032634;28;20049;-65
2021/05/26 02:10:06;;;;;;;1999.90;999.90;;;;;;;8.99;82.14;98472.41;5032678;28;20049;-65
2021/05/26 02:12:33;;;;;;;1999.90;999.90;;;;;;;8.58;83.97;98465.06;5032074;28;20496;-65
2021/05/26 02:15:02;;;;;;;1999.90;999.90;;;;;;;8.91;83.15;98473.13;5031357;28;20091;-65
2021/05/26 02:17:29;;;;;;;1999.90;999.90;;;;;;;8.57;84.44;98465.38;5032995;28;20104;-65
2021/05/26 02:19:56;;;;;;;1999.90;999.90;;;;;;;8.70;84.42;98464.53;5030551;28;20426;-65
2021/05/26 02:22:23;;;;;;;1999.90;999.90;;;;;;;8.80;83.46;98464.28;5032846;28;20127;-65
2021/05/26 02:24:50;;;;;;;1999.90;999.90;;;;;;;9.10;82.27;98472.97;5033580;28;20057;-65
2021/05/26 02:27:16;;;;;;;1999.90;999.90;;;;;;;9.43;81.10;98469.94;5032078;28;20045;-65
2021/05/26 02:29:44;;;;;;;1999.90;999.90;;;;;;;9.23;81.75;98465.75;5031801;28;20425;-65
2021/05/26 02:32:11;;;;;;;1999.90;999.90;;;;;;;9.25;81.65;98457.97;5032063;28;20092;-65
2021/05/26 02:34:37;;;;;;;1999.90;999.90;;;;;;;9.22;81.48;98461.38;5031877;28;20091;-65
2021/05/26 02:37:05;;;;;;;1999.90;999.90;;;;;;;8.91;82.55;98453.03;5031241;28;20050;-65
2021/05/26 02:39:32;;;;;;;1999.90;999.90;;;;;;;9.22;81.68;98460.56;5032818;28;20477;-65
2021/05/26 02:41:59;;;;;;;1999.90;999.90;;;;;;;9.04;81.95;98452.16;5031229;28;20076;-65
2021/05/26 02:44:26;;;;;;;1999.90;999.90;;;;;;;8.88;82.81;98448.94;5031331;28;20124;-65
2021/05/26 02:46:53;;;;;;;1999.90;999.90;;;;;;;8.88;82.83;98448.94;5032239;28;20115;-65
2021/05/26 02:49:20;;;;;;;1999.90;999.90;;;;;;;8.77;83.01;98451.13;5031483;28;20057;-65
2021/05/26 02:51:46;;;;;;;1999.90;999.90;;;;;;;8.68;83.47;98438.38;5031037;28;20091;-64
2021/05/26 02:54:13;;;;;;;1999.90;999.90;;;;;;;8.61;84.27;98447.91;5032416;28;20076;-64
2021/05/26 02:56:39;;;;;;;1999.90;999.90;;;;;;;8.46;84.40;98451.81;5031528;28;20807;-64
2021/05/26 02:59:07;;;;;;;1999.90;999.90;;;;;;;8.16;86.23;98455.19;5032696;28;20117;-64
2021/05/26 03:01:35;;;;;;;1999.90;999.90;;;;;;;8.73;84.00;98457.56;5030563;28;20453;-65
2021/05/26 03:04:02;;;;;;;1999.90;999.90;;;;;;;8.35;84.66;98457.81;5030079;28;20359;-65
2021/05/26 03:06:29;;;;;;;1999.90;999.90;;;;;;;8.53;84.38;98447.81;5033054;28;20336;-65
2021/05/26 03:08:56;;;;;;;1999.90;999.90;;;;;;;8.58;83.73;98456.78;5029959;28;20099;-65
2021/05/26 03:11:22;;;;;;;1999.90;999.90;;;;;;;8.54;84.19;98455.78;5030720;28;20053;-64
2021/05/26 03:13:49;;;;;;;1999.90;999.90;;;;;;;8.54;84.06;98466.00;5030975;28;20345;-65
2021/05/26 03:16:16;;;;;;;1999.90;999.90;;;;;;;8.58;83.51;98464.25;5030091;28;20103;-65
2021/05/26 03:18:45;;;;;;;1999.90;999.90;;;;;;;9.18;81.68;98467.81;5030982;28;20045;-65
2021/05/26 03:21:12;;;;;;;1999.90;999.90;;;;;;;9.14;81.56;98468.47;5031335;28;20053;-65
2021/05/26 03:23:41;;;;;;;1999.90;999.90;;;;;;;9.11;81.36;98474.59;5030610;28;20045;-65
2021/05/26 03:26:08;;;;;;;1999.90;999.90;;;;;;;9.33;80.57;98470.19;5031737;28;20053;-65
2021/05/26 03:28:37;;;;;;;1999.90;999.90;;;;;;;9.59;79.68;98473.13;5032196;28;20049;-64
2021/05/26 03:31:03;;;;;;;1999.90;999.90;;;;;;;9.14;80.98;98476.72;5030840;28;20049;-65
2021/05/26 03:33:30;;;;;;;1999.90;999.90;;;;;;;9.26;81.06;98480.84;5030253;28;20383;-64
2021/05/26 03:35:56;;;;;;;1999.90;999.90;;;;;;;9.14;81.51;98476.72;5031380;28;20053;-65
2021/05/26 03:38:23;;;;;;;1999.90;999.90;;;;;;;9.15;81.40;98478.38;5031166;28;20042;-64
2021/05/26 03:40:50;;;;;;;1999.90;999.90;;;;;;;9.36;80.86;98469.56;5030014;28;20429;-65
2021/05/26 03:43:16;;;;;;;1999.90;999.90;;;;;;;9.44;79.74;98468.81;5031072;28;20045;-64
2021/05/26 03:45:43;;;;;;;1999.90;999.90;;;;;;;9.61;79.06;98481.91;5029944;28;20045;-65
2021/05/26 03:48:09;;;;;;;1999.90;999.90;;;;;;;9.55;79.23;98482.38;5031234;28;20049;-65
2021/05/26 03:50:37;;;;;;;1999.90;999.90;;;;;;;9.84;78.06;98477.16;5030484;28;20087;-65
2021/05/26 03:53:05;;;;;;;1999.90;999.90;;;;;;;9.98;77.73;98479.00;5031411;28;20045;-65
2021/05/26 03:55:31;;;;;;;1999.90;999.90;;;;;;;10.57;75.52;98478.72;5031757;28;20046;-65
2021/05/26 03:57:58;;;;;;;1999.90;999.90;;;;;;;10.66;75.05;98470.44;5029927;28;20053;-65
2021/05/26 04:00:25;;;;;;;1999.90;999.90;;;;;;;10.37;75.33;98475.41;5030943;28;20071;-65
2021/05/26 04:02:51;;;;;;;1999.90;999.90;;;;;;;10.33;75.08;98473.59;5031722;28;20046;-65
2021/05/26 04:05:18;;;;;;;1999.90;999.90;;;;;;;10.14;75.55;98471.91;5031231;28;20119;-65
2021/05/26 04:07:45;;;;;;;1999.90;999.90;;;;;;;10.10;75.91;98481.97;5031037;28;20053;-65
2021/05/26 04:10:11;;;;;;;1999.90;999.90;;;;;;;9.99;76.41;98478.69;5031042;28;20053;-65
2021/05/26 04:12:38;;;;;;;1999.90;999.90;;;;;;;10.26;76.06;98487.06;5024189;28;20045;-65
2021/05/26 04:15:07;;;;;;;1999.90;999.90;;;;;;;10.80;74.53;98478.59;5030331;28;20366;-65
2021/05/26 04:17:34;;;;;;;1999.90;999.90;;;;;;;11.30;72.82;98488.34;5029244;28;20426;-65
2021/05/26 04:20:05;;;;;;;1999.90;999.90;;;;;;;11.53;71.45;98491.75;5025673;28;20046;-65
2021/05/26 04:22:33;;;;;;;1999.90;999.90;;;;;;;11.86;70.94;98496.72;5029906;28;20046;-65
2021/05/26 04:25:00;;;;;;;1999.90;999.90;;;;;;;12.47;68.53;98490.94;5028515;28;20450;-65
2021/05/26 04:27:27;;;;;;;1999.90;999.90;;;;;;;12.66;68.40;98499.63;5029805;28;20434;-65
2021/05/26 04:29:53;;;;;;;1999.90;999.90;;;;;;;12.70;67.03;98488.69;5030227;28;20045;-65
2021/05/26 04:32:20;;;;;;;1999.90;999.90;;;;;;;13.06;66.38;98494.81;5027730;28;20095;-65
2021/05/26 04:34:47;;;;;;;1999.90;999.90;;;;;;;13.00;66.85;98491.41;5030087;28;20053;-65
2021/05/26 04:37:16;;;;;;;1999.90;999.90;;;;;;;12.89;66.85;98485.44;5028998;28;20049;-65
2021/05/26 04:39:44;;;;;;;1999.90;999.90;;;;;;;12.62;66.89;98487.59;5026998;28;20049;-65
2021/05/26 04:42:10;;;;;;;1999.90;999.90;;;;;;;12.54;67.71;98491.22;5029080;28;20648;-65
2021/05/26 04:44:37;;;;;;;1999.90;999.90;;;;;;;12.56;68.11;98477.81;5029442;28;20115;-65
2021/05/26 04:47:04;;;;;;;1999.90;999.90;;;;;;;12.41;69.07;98481.19;5024843;28;20057;-65
2021/05/26 04:49:30;;;;;;;1999.90;999.90;;;;;;;12.53;68.46;98488.78;5031554;28;20041;-65
2021/05/26 04:51:57;;;;;;;1999.90;999.90;;;;;;;12.94;67.32;98476.94;5028898;28;20049;-66
2021/05/26 04:54:23;;;;;;;1999.90;999.90;;;;;;;12.47;68.14;98479.84;5030735;28;20096;-65
2021/05/26 04:56:50;;;;;;;1999.90;999.90;;;;;;;12.66;68.66;98483.00;5031322;28;20049;-66
2021/05/26 04:59:17;;;;;;;1999.90;999.90;;;;;;;12.14;68.74;98488.81;5028714;28;20049;-65
2021/05/26 05:01:43;;;;;;;1999.90;999.90;;;;;;;12.53;68.70;98486.81;5030766;28;20099;-66
2021/05/26 05:04:10;;;;;;;1999.90;999.90;;;;;;;12.18;68.98;98494.50;5031039;28;20084;-65
2021/05/26 05:06:36;;;;;;;1999.90;999.90;;;;;;;11.77;70.22;98485.66;5029114;28;20413;-66
2021/05/26 05:09:05;;;;;;;1999.90;999.90;;;;;;;12.15;70.00;98493.22;5029541;28;20053;-65
2021/05/26 05:11:32;;;;;;;1999.90;999.90;;;;;;;12.22;70.29;98489.94;5030171;28;20107;-65
2021/05/26 05:13:59;;;;;;;1999.90;999.90;;;;;;;12.50;68.83;98493.03;5030262;28;20276;-65
2021/05/26 05:16:27;;;;;;;1999.90;999.90;;;;;;;12.23;68.28;98481.28;5031197;28;20416;-65
2021/05/26 05:18:54;;;;;;;1999.90;999.90;;;;;;;11.51;70.62;98496.78;5030654;28;20107;-64
2021/05/26 05:21:21;;;;;;;1999.90;999.90;;;;;;;11.51;71.11;98499.56;5030031;28;20484;-64
2021/05/26 05:23:48;;;;;;;1999.90;999.90;;;;;;;11.77;70.52;98499.50;5030995;28;20071;-65
2021/05/26 05:26:15;;;;;;;1999.90;999.90;;;;;;;11.63;70.27;98492.22;5030874;28;20049;-66
2021/05/26 05:28:42;;;;;;;1999.90;999.90;;;;;;;11.77;69.84;98491.19;5030182;28;20092;-66
2021/05/26 05:31:09;;;;;;;1999.90;999.90;;;;;;;12.11;69.16;98495.84;5030671;28;20075;-64
2021/05/26 05:33:35;;;;;;;1999.90;999.90;;;;;;;12.47;67.63;98488.16;5032108;28;20053;-64
2021/05/26 05:36:03;;;;;;;1999.90;999.90;;;;;;;12.17;67.67;98492.91;5034433;28;20053;-64
2021/05/26 05:38:29;;;;;;;1999.90;999.90;;;;;;;12.35;68.66;98491.66;5034327;28;20449;-64
2021/05/26 05:40:56;;;;;;;1999.90;999.90;;;;;;;12.46;67.86;98497.63;5032262;28;20110;-65
2021/05/26 05:43:23;;;;;;;1999.90;999.90;;;;;;;12.56;67.65;98485.34;5033771;28;20226;-65
2021/05/26 05:45:50;;;;;;;1999.90;999.90;;;;;;;12.57;66.72;98495.31;5034143;28;20053;-65
2021/05/26 05:48:17;;;;;;;1999.90;999.90;;;;;;;12.59;66.17;98499.34;5032200;28;20053;-65
2021/05/26 05:50:43;;;;;;;1999.90;999.90;;;;;;;12.99;66.32;98493.38;5033984;28;20107;-65
2021/05/26 05:53:10;;;;;;;1999.90;999.90;;;;;;;13.43;64.21;98492.22;5049848;28;20335;-65
2021/05/26 05:55:37;;;;;;;1999.90;999.90;;;;;;;13.96;63.31;98503.59;5032026;28;20095;-65
2021/05/26 05:58:04;;;;;;;1999.90;999.90;;;;;;;14.06;63.37;98495.63;5033947;28;20053;-65
2021/05/26 06:00:34;;;;;;;1999.90;999.90;;;;;;;14.49;61.30;98501.00;5034546;28;20064;-65
2021/05/26 06:03:01;;;;;;;1999.90;999.90;;;;;;;14.94;61.22;98486.13;5033207;28;20085;-65
2021/05/26 06:05:31;;;;;;;1999.90;999.90;;;;;;;15.42;58.82;98484.34;5034100;28;20284;-65
2021/05/26 06:07:58;;;;;;;1999.90;999.90;;;;;;;14.70;60.88;98487.78;5033878;28;20454;-65
2021/05/26 06:10:24;;;;;;;1999.90;999.90;;;;;;;14.61;61.88;98484.31;5033252;28;20057;-65
2021/05/26 06:12:55;;;;;;;1999.90;999.90;;;;;;;14.40;62.08;98485.22;5032823;28;20096;-65
2021/05/26 06:15:22;;;;;;;1999.90;999.90;;;;;;;15.04;61.22;98482.03;5033978;28;20342;-65
2021/05/26 06:17:48;;;;;;;1999.90;999.90;;;;;;;14.66;61.36;98484.06;5033335;28;20092;-65
2021/05/26 06:20:15;;;;;;;1999.90;999.90;;;;;;;14.48;61.72;98483.47;5031702;28;20054;-65
2021/05/26 06:22:42;;;;;;;1999.90;999.90;;;;;;;15.41;60.69;98477.16;5032438;28;20046;-65
2021/05/26 06:25:09;;;;;;;1999.90;999.90;;;;;;;15.71;59.37;98490.72;5031703;28;20399;-65
2021/05/26 06:27:36;;;;;;;1999.90;999.90;;;;;;;14.99;61.04;98488.69;5034308;28;20052;-65
2021/05/26 06:30:03;;;;;;;1999.90;999.90;;;;;;;15.02;60.37;98492.72;5033389;28;20111;-65
2021/05/26 06:32:30;;;;;;;1999.90;999.90;;;;;;;14.96;59.83;98495.75;5031711;28;20049;-65
2021/05/26 06:34:56;;;;;;;1999.90;999.90;;;;;;;14.97;59.79;98496.56;5033974;28;20072;-65
2021/05/26 06:37:23;;;;;;;1999.90;999.90;;;;;;;15.40;57.65;98486.66;5032818;28;20050;-65
2021/05/26 06:39:50;;;;;;;1999.90;999.90;;;;;;;15.73;57.70;98487.56;5033008;28;20055;-65
2021/05/26 06:42:16;;;;;;;1999.90;999.90;;;;;;;16.11;58.21;98489.00;5034066;28;20512;-65
2021/05/26 06:44:43;;;;;;;1999.90;999.90;;;;;;;16.11;56.60;98481.44;5031688;28;20053;-65
2021/05/26 06:47:10;;;;;;;1999.90;999.90;;;;;;;15.27;57.20;98485.91;5033466;28;20072;-65
2021/05/26 06:49:37;;;;;;;1999.90;999.90;;;;;;;15.67;57.09;98473.06;5032878;28;20068;-65
2021/05/26 06:52:04;;;;;;;1999.90;999.90;;;;;;;15.55;57.85;98475.94;5030969;28;20080;-65
2021/05/26 06:54:30;;;;;;;1999.90;999.90;;;;;;;15.12;57.80;98476.34;5031813;28;20042;-65
2021/05/26 06:56:57;;;;;;;1999.90;999.90;;;;;;;15.24;57.53;98477.44;5033442;28;20111;-65
2021/05/26 06:59:23;;;;;;;1999.90;999.90;;;;;;;14.93;57.54;98476.97;5031204;28;20048;-65
2021/05/26 07:01:50;;;;;;;1999.90;999.90;;;;;;;15.12;57.64;98470.78;5033204;28;20041;-65
2021/05/26 07:04:16;;;;;;;1999.90;999.90;;;;;;;14.91;57.69;98468.13;5032978;28;20049;-65
2021/05/26 07:06:43;;;;;;;1999.90;999.90;;;;;;;14.77;58.55;98474.09;5032236;28;20049;-65
2021/05/26 07:09:10;;;;;;;1999.90;999.90;;;;;;;15.11;58.48;98469.16;5033008;28;20057;-65
2021/05/26 07:11:37;;;;;;;1999.90;999.90;;;;;;;14.83;58.69;98473.84;5032379;28;20049;-64
2021/05/26 07:14:03;;;;;;;1999.90;999.90;;;;;;;15.44;58.95;98476.44;5032085;28;20081;-65
2021/05/26 07:16:30;;;;;;;1999.90;999.90;;;;;;;15.94;58.10;98473.41;5031880;28;20049;-65
2021/05/26 07:18:59;;;;;;;1999.90;999.90;;;;;;;16.09;56.79;98478.22;5032271;28;20103;-65
2021/05/26 07:21:27;;;;;;;1999.90;999.90;;;;;;;16.31;56.69;98473.16;5032500;28;20045;-65
2021/05/26 07:23:56;;;;;;;1999.90;999.90;;;;;;;16.05;55.55;98477.31;5032481;28;20049;-66
2021/05/26 07:26:23;;;;;;;1999.90;999.90;;;;;;;16.65;56.77;98487.50;5031900;28;20053;-66
2021/05/26 07:28:50;;;;;;;1999.90;999.90;;;;;;;17.41;54.12;98473.22;5032898;28;20057;-66
2021/05/26 07:31:17;;;;;;;1999.90;999.90;;;;;;;17.80;52.95;98475.97;5034397;28;20045;-66
2021/05/26 07:33:45;;;;;;;1999.90;999.90;;;;;;;17.41;52.95;98482.41;5030830;28;20045;-66
2021/05/26 07:36:12;;;;;;;1999.90;999.90;;;;;;;17.92;52.85;98472.22;5031856;28;20049;-66
2021/05/26 07:38:40;;;;;;;1999.90;999.90;;;;;;;18.19;50.94;98473.09;5033997;28;20050;-66
2021/05/26 07:41:08;;;;;;;1999.90;999.90;;;;;;;18.53;51.00;98484.44;5032939;28;20088;-66
2021/05/26 07:43:35;;;;;;;1999.90;999.90;;;;;;;18.75;49.77;98476.38;5032184;28;20276;-66
2021/05/26 07:46:03;;;;;;;1999.90;999.90;;;;;;;18.11;50.40;98469.34;5032625;28;20132;-66
2021/05/26 07:48:31;;;;;;;1999.90;999.90;;;;;;;17.58;50.04;98472.78;5031510;28;20050;-66
2021/05/26 07:50:59;;;;;;;1999.90;999.90;;;;;;;17.13;49.60;98479.03;5032814;28;20053;-66
2021/05/26 07:53:26;;;;;;;1999.90;999.90;;;;;;;17.23;50.70;98475.66;5032047;28;20042;-66
2021/05/26 07:55:53;;;;;;;1999.90;999.90;;;;;;;17.48;51.27;98475.38;5030156;28;20046;-67
2021/05/26 07:58:19;;;;;;;1999.90;999.90;;;;;;;17.93;50.27;98473.84;5032078;28;20050;-66
2021/05/26 08:00:49;;;;;;;1999.90;999.90;;;;;;;17.79;50.11;98474.38;5032436;28;20052;-66
2021/05/26 08:03:16;;;;;;;1999.90;999.90;;;;;;;18.30;49.99;98473.28;5030646;28;20080;-64
2021/05/26 08:05:43;;;;;;;1999.90;999.90;;;;;;;17.84;49.66;98474.06;5031932;28;20086;-63
2021/05/26 08:08:09;;;;;;;1999.90;999.90;;;;;;;17.73;49.10;98470.22;5032528;28;20045;-66
2021/05/26 08:10:36;;;;;;;1999.90;999.90;;;;;;;17.45;48.51;98456.50;5031152;28;20046;-65
2021/05/26 08:13:02;;;;;;;1999.90;999.90;;;;;;;18.57;48.54;98462.91;5032752;28;20053;-66
2021/05/26 08:15:29;;;;;;;1999.90;999.90;;;;;;;19.02;47.60;98463.16;5032314;28;20049;-65
2021/05/26 08:17:56;;;;;;;1999.90;999.90;;;;;;;17.57;48.72;98462.75;5031481;28;20049;-65
2021/05/26 08:20:22;;;;;;;1999.90;999.90;;;;;;;17.57;48.93;98465.56;5032377;28;20099;-65
2021/05/26 08:22:49;;;;;;;1999.90;999.90;;;;;;;17.93;49.09;98465.44;5029782;28;20045;-65
2021/05/26 08:25:18;;;;;;;1999.90;999.90;;;;;;;18.00;46.44;98467.56;5031504;28;20041;-65
2021/05/26 08:27:44;;;;;;;1999.90;999.90;;;;;;;18.26;45.48;98462.00;5032695;28;20434;-65
2021/05/26 08:30:11;;;;;;;1999.90;999.90;;;;;;;18.17;44.50;98464.25;5029953;28;20057;-65
2021/05/26 08:32:38;;;;;;;1999.90;999.90;;;;;;;18.01;45.00;98467.19;5031212;28;20060;-65
2021/05/26 08:35:06;;;;;;;1999.90;999.90;;;;;;;17.95;45.69;98452.72;5032846;28;20119;-65
2021/05/26 08:37:33;;;;;;;1999.90;999.90;;;;;;;18.56;45.41;98457.69;5031487;28;21364;-65
2021/05/26 08:39:59;;;;;;;1999.90;999.90;;;;;;;18.91;44.68;98445.44;5032417;28;20358;-65
2021/05/26 08:42:26;;;;;;;1999.90;999.90;;;;;;;18.09;45.02;98442.94;5032341;28;20053;-65
2021/05/26 08:44:53;;;;;;;1999.90;999.90;;;;;;;18.15;44.57;98458.25;5030109;28;20041;-64
2021/05/26 08:47:20;;;;;;;1999.90;999.90;;;;;;;18.37;45.93;98444.59;5030243;28;20049;-65
2021/05/26 08:49:49;;;;;;;1999.90;999.90;;;;;;;17.82;45.36;98447.63;5031766;28;20053;-65
2021/05/26 08:52:17;;;;;;;1999.90;999.90;;;;;;;17.74;44.03;98438.31;5030375;28;20053;-65
2021/05/26 08:54:46;;;;;;;1999.90;999.90;;;;;;;17.55;45.25;98422.38;5031247;28;20074;-65
2021/05/26 08:57:15;;;;;;;1999.90;999.90;;;;;;;17.90;44.37;98444.63;5031670;28;20141;-65
2021/05/26 08:59:42;;;;;;;1999.90;999.90;;;;;;;18.12;45.48;98445.81;5022698;28;20049;-64
2021/05/26 09:02:13;;;;;;;1999.90;999.90;;;;;;;18.56;44.39;98427.69;5032585;28;20350;-65
2021/05/26 09:04:41;;;;;;;1999.90;999.90;;;;;;;18.45;44.35;98429.53;5031808;28;20042;-65
2021/05/26 09:07:14;;;;;;;1999.90;999.90;;;;;;;18.12;44.88;98428.22;5031934;28;20096;-65
2021/05/26 09:10:02;;;;;;;1999.90;999.90;;;;;;;17.74;44.71;98435.50;5031802;28;20353;-64
2021/05/26 09:12:39;;;;;;;1999.90;999.90;;;;;;;18.58;43.14;98428.13;5035133;28;20045;-65
2021/05/26 09:15:15;;;;;;;1999.90;999.90;;;;;;;18.93;44.15;98420.63;5035000;28;20033;-65
2021/05/26 09:17:44;;;;;;;1999.90;999.90;;;;;;;18.64;43.27;98421.00;5035742;28;20322;-65
2021/05/26 09:20:11;;;;;;;1999.90;999.90;;;;;;;19.04;42.74;98415.97;5036465;28;20064;-65
2021/05/26 09:22:41;;;;;;;1999.90;999.90;;;;;;;19.70;41.57;98421.91;5034008;28;20053;-66
2021/05/26 09:25:08;;;;;;;1999.90;999.90;;;;;;;19.20;41.42;98415.75;5036110;28;20046;-65
2021/05/26 09:27:35;;;;;;;1999.90;999.90;;;;;;;18.99;41.86;98414.31;5036182;28;20434;-65
2021/05/26 09:30:03;;;;;;;1999.90;999.90;;;;;;;18.93;41.36;98413.03;5034091;28;20442;-65
2021/05/26 09:32:33;;;;;;;1999.90;999.90;;;;;;;19.43;40.57;98404.41;5035806;28;20061;-65
2021/05/26 09:35:00;;;;;;;1999.90;999.90;;;;;;;18.82;40.13;98403.66;5035329;28;20115;-65
2021/05/26 09:37:31;;;;;;;1999.90;999.90;;;;;;;19.26;39.52;98405.81;5034835;28;20176;-65
2021/05/26 09:40:03;;;;;;;1999.90;999.90;;;;;;;19.25;39.70;98397.78;5035640;28;20046;-65
2021/05/26 09:42:34;;;;;;;1999.90;999.90;;;;;;;19.22;40.42;98406.97;5035895;28;20426;-65
2021/05/26 09:45:18;;;;;;;1999.90;999.90;;;;;;;19.06;40.85;98390.38;5032596;28;20479;-66
2021/05/26 09:47:46;;;;;;;1999.90;999.90;;;;;;;19.68;41.02;98403.84;5030864;28;20056;-65
2021/05/26 09:50:39;;;;;;;1999.90;999.90;;;;;;;20.67;39.24;98405.09;5036000;28;20104;-66
2021/05/26 09:53:11;;;;;;;1999.90;999.90;;;;;;;20.78;40.23;98391.09;5034434;28;20080;-66
2021/05/26 09:55:39;;;;;;;1999.90;999.90;;;;;;;20.84;39.02;98395.19;5035485;28;20041;-65
2021/05/26 09:58:16;;;;;;;1999.90;999.90;;;;;;;20.52;40.01;98381.72;5035278;28;20053;-65
2021/05/26 10:00:47;;;;;;;1999.90;999.90;;;;;;;19.93;39.54;98370.44;5044622;28;20435;-65
2021/05/26 10:03:14;;;;;;;1999.90;999.90;;;;;;;19.82;39.55;98372.38;5031311;28;20056;-64
2021/05/26 10:05:41;;;;;;;1999.90;999.90;;;;;;;19.87;38.28;98377.63;5035422;28;20037;-65
2021/05/26 10:08:12;;;;;;;1999.90;999.90;;;;;;;20.03;40.18;98380.97;5034693;28;20053;-65
2021/05/26 10:10:48;;;;;;;1999.90;999.90;;;;;;;18.75;40.55;98372.75;5033671;28;20092;-64
2021/05/26 10:13:17;;;;;;;1999.90;999.90;;;;;;;17.94;43.03;98378.38;5034718;28;20398;-64
2021/05/26 10:15:44;;;;;;;1999.90;999.90;;;;;;;18.33;42.18;98370.97;5032811;28;20500;-65
2021/05/26 10:18:11;;;;;;;1999.90;999.90;;;;;;;19.21;39.92;98372.53;5032506;28;20045;-65
2021/05/26 10:20:42;;;;;;;1999.90;999.90;;;;;;;20.00;39.45;98367.72;5035915;28;20045;-65
2021/05/26 10:23:16;;;;;;;1999.90;999.90;;;;;;;20.18;37.60;98370.66;5034299;28;20508;-66
2021/05/26 10:25:44;;;;;;;1999.90;999.90;;;;;;;20.59;36.80;98347.25;5033939;28;20419;-65
2021/05/26 10:28:27;;;;;;;1999.90;999.90;;;;;;;20.02;38.54;98356.91;5035323;28;20449;-65
2021/05/26 10:30:56;;;;;;;1999.90;999.90;;;;;;;21.13;39.22;98355.94;5034247;28;20234;-65
2021/05/26 10:33:43;;;;;;;1999.90;999.90;;;;;;;20.26;38.88;98359.47;5032788;28;20077;-65
2021/05/26 10:36:11;;;;;;;1999.90;999.90;;;;;;;20.29;39.66;98348.28;5021762;28;20095;-65
2021/05/26 10:38:56;;;;;;;1999.90;999.90;;;;;;;20.02;39.68;98351.31;5034195;28;20053;-65
2021/05/26 10:41:23;;;;;;;1999.90;999.90;;;;;;;20.24;38.65;98343.81;5031551;28;20049;-65
2021/05/26 10:43:52;;;;;;;1999.90;999.90;;;;;;;20.95;38.78;98341.81;5033469;28;20248;-65
2021/05/26 10:46:36;;;;;;;1999.90;999.90;;;;;;;20.67;35.04;98340.50;5033570;28;20166;-65
2021/05/26 10:49:05;;;;;;;1999.90;999.90;;;;;;;20.71;36.05;98330.09;5028221;28;20049;-65
2021/05/26 10:51:53;;;;;;;1999.90;999.90;;;;;;;20.24;38.35;98335.41;5034447;28;20473;-65
2021/05/26 10:54:38;;;;;;;1999.90;999.90;;;;;;;19.62;36.88;98344.53;5034122;28;20418;-65
2021/05/26 10:57:08;;;;;;;1999.90;999.90;;;;;;;19.75;36.18;98330.19;5033268;28;20049;-65
2021/05/26 10:59:36;;;;;;;1999.90;999.90;;;;;;;20.98;35.21;98321.34;5022025;28;20528;-65
2021/05/26 11:02:08;;;;;;;1999.90;999.90;;;;;;;20.43;34.95;98318.69;5034895;28;20056;-65